This is the latest recevied weather packets stored in our database for station/object K4DFD-13. If no packets are shown the sender has not sent any weather packets the latest 10 day(s).
| Time | Temp. | Humidity | Pressure | Rain* | Wind** | Luminosity | Snow |
|---|---|---|---|---|---|---|---|
| 1777777486 | 4.44° C | 69% | 1015.7 hPa | 0 mm | - | - | - |
| 1777777166 | 5° C | 68% | 1015.7 hPa | 0 mm | - | - | - |
| 1777776865 | 5° C | 66% | 1015.7 hPa | 0 mm | - | - | - |
| 1777776565 | 5.56° C | 66% | 1015.8 hPa | 0 mm | - | - | - |
| 1777776265 | 5.56° C | 64% | 1015.8 hPa | 0 mm | - | - | - |
| 1777775964 | 6.11° C | 63% | 1015.8 hPa | 0 mm | - | - | - |
| 1777775684 | 6.11° C | 62% | 1015.8 hPa | 0 mm | - | - | - |
| 1777775384 | 6.11° C | 61% | 1015.8 hPa | 0 mm | - | - | - |
| 1777775083 | 6.67° C | 61% | 1015.7 hPa | 0 mm | - | - | - |
| 1777774774 | 6.67° C | 59% | 1015.5 hPa | 0 mm | - | - | - |
| 1777774474 | 6.11° C | 60% | 1015.6 hPa | 0 mm | - | - | - |
| 1777774173 | 6.11° C | 61% | 1015.6 hPa | 0 mm | - | - | - |
| 1777773873 | 6.11° C | 62% | 1015.6 hPa | 0 mm | - | - | - |
| 1777773572 | 6.11° C | 61% | 1015.5 hPa | 0 mm | - | - | - |
| 1777773272 | 6.67° C | 63% | 1015.5 hPa | 0 mm | - | - | - |
| 1777772981 | 6.67° C | 60% | 1015.3 hPa | 0 mm | - | - | - |
| 1777772680 | 6.11° C | 60% | 1015.2 hPa | 0 mm | - | - | - |
| 1777772380 | 5.56° C | 68% | 1015.4 hPa | 0 mm | - | - | - |
| 1777772079 | 6.11° C | 66% | 1015.4 hPa | 0 mm | - | - | - |
| 1777771779 | 6.11° C | 64% | 1015.3 hPa | 0 mm | - | - | - |
| 1777771479 | 6.11° C | 63% | 1015.3 hPa | 0 mm | - | - | - |
| 1777771179 | 6.67° C | 63% | 1015.3 hPa | 0 mm | - | - | - |
| 1777770878 | 6.67° C | 62% | 1015.3 hPa | 0 mm | - | - | - |
| 1777770578 | 6.67° C | 61% | 1015.1 hPa | 0 mm | - | - | - |
| 1777770278 | 6.67° C | 62% | 1015.2 hPa | 0 mm | - | - | - |
* Rain latest hour (hover to see other rain measurements)
** Current wind speed in m/s (hover to see current wind gust speed)